Weather observations for the past three days for
Madison, Madison-Lac Qui Parle County Airport
Metric (Imperial)
Date Time (cdt) Wind (kph) Vis. (km) Weather Sky Cond. Temperature (ºC) Relative Humidity Wind Chill (°C) Heat Index (°C) Pressure Precipitation (cm)
Air Dwpt 6 hour altimeter (cm) sea level (mb) 1 hr 3 hr 6 hr
Max. Min.
03 15:15 NW 20 G 26 16.09 Fair CLR 20 -2 23% 75.64 0.0
03 14:55 NW 24 G 35 16.09 Fair CLR 19 -3 22% 75.67 0.0
03 14:35 NW 22 G 30 16.09 Fair CLR 19 -3 22% 75.67 0.0
03 14:15 N 15 G 35 16.09 Fair CLR 19 -3 22% 75.72 0.0
03 13:55 NW 24 G 30 16.09 Fair CLR 19 -3 22% 75.74 0.0
03 13:35 NW 15 G 28 16.09 Fair CLR 18 -2 26% 75.77 0.0
03 13:15 NW 22 G 35 16.09 Fair CLR 18 -3 24% 75.79 0.0
03 12:55 N 17 G 30 16.09 Fair CLR 18 -2 26% 75.79 0.0
03 12:35 N 19 G 28 16.09 Fair CLR 17 -1 30% 75.82 0.0
03 12:15 NW 20 16.09 Fair CLR 17 -1 30% 75.82 0.0
03 11:55 N 17 16.09 Fair CLR 17 0 32% 75.84 0.0
03 11:35 NW 20 G 30 16.09 Fair CLR 16 0 34% 75.84 0.0
03 11:15 N 24 G 30 16.09 Fair CLR 16 0 34% 75.84 0.0
03 10:55 NW 20 G 30 16.09 Fair CLR 16 1 36% 75.84 0.0
03 10:35 NW 26 16.09 Fair CLR 15 1 39% 75.84 0.0
03 10:15 NW 28 16.09 Fair CLR 14 1 41% 75.84 0.0
03 09:55 NW 20 16.09 Fair CLR 13 2 47% 75.84 0.0
03 09:35 NW 24 16.09 Fair CLR 13 1 44% 75.84 0.0
03 09:15 NW 24 16.09 Fair CLR 12 2 51% 75.84 0.0
03 08:55 NW 28 16.09 Fair CLR 11 2 54% 75.84 0.0
03 08:35 NW 28 G 35 16.09 Fair CLR 11 2 54% 75.84 0.0
03 08:15 NW 26 G 35 16.09 Fair CLR 9 2 62% 6 75.82 0.0
03 07:55 NW 24 16.09 Fair CLR 9 3 66% 6 75.82 0.0
03 07:35 NW 20 16.09 Fair CLR 8 2 66% 5 75.79 0.0
03 07:15 NW 15 16.09 Fair CLR 7 2 71% 5 75.77 0.0
03 06:55 Calm 16.09 Fair CLR 7 2 71% 75.74 0.0
03 06:35 NW 17 16.09 Fair CLR 7 2 71% 4 75.72 0.0
03 06:15 NW 22 16.09 Fair CLR 7 2 71% 4 75.72 0.0
03 05:55 NW 20 16.09 Fair CLR 7 2 71% 4 75.69 0.0
03 05:35 NW 19 16.09 Fair CLR 7 2 71% 4 75.67 0.0
03 05:15 NW 22 16.09 Fair CLR 8 2 66% 5 75.67 0.0
03 04:55 NW 17 16.09 Fair CLR 7 2 71% 4 75.67 0.0
03 04:35 NW 19 16.09 Fair CLR 8 2 66% 5 75.64 0.0
03 04:15 NW 19 16.09 Fair CLR 8 2 66% 5 75.62 0.0
03 03:55 NW 17 16.09 Fair CLR 8 2 66% 6 75.62 0.0
03 03:35 NW 20 16.09 Fair CLR 9 2 62% 6 75.62 0.0
03 03:15 NW 17 16.09 Fair CLR 9 2 62% 7 75.59 0.0
03 02:55 NW 20 16.09 Fair CLR 10 2 58% 8 75.59 0.0
03 02:35 NW 24 16.09 Fair CLR 11 1 50% 75.57 0.0
03 02:15 NW 20 16.09 Fair CLR 10 2 58% 8 75.57 0.0
03 01:55 NW 20 16.09 Fair CLR 11 2 54% 75.57 0.0
03 01:35 NW 20 G 31 16.09 Fair CLR 12 2 51% 75.54 0.0
03 01:15 W 24 16.09 Fair CLR 12 2 51% 75.51 0.0
03 00:55 W 17 16.09 Fair CLR 12 2 51% 75.51 0.0
03 00:35 W 13 16.09 Partly Cloudy SCT100 13 1 44% 75.49 0.0
03 00:15 W 13 16.09 Mostly Cloudy BKN100 14 1 41% 75.51 0.0
02 23:55 W 13 16.09 Mostly Cloudy BKN100 13 1 44% 75.51 0.0
02 23:35 W 9 16.09 Partly Cloudy SCT110 14 0 39% 75.51 0.0
02 23:15 Calm 16.09 Partly Cloudy SCT110 15 1 39% 75.51 0.0
02 22:55 Calm 16.09 Mostly Cloudy BKN100 15 2 42% 75.51 0.0
02 22:35 S 6 16.09 Mostly Cloudy BKN090 14 4 51% 75.51 0.0
02 22:15 S 11 16.09 Mostly Cloudy BKN090 15 2 42% 75.54 0.0
02 21:55 S 11 16.09 Light Rain BKN100 16 1 36% 75.57 0.0
02 21:35 SW 6 16.09 Mostly Cloudy SCT075 BKN100 17 -2 27% 75.59 0.0
02 21:15 SW 19 16.09 Mostly Cloudy BKN100 17 -3 25% 75.57 0.0
02 20:55 SW 7 16.09 Mostly Cloudy BKN100 17 -5 22% 75.62 0.0
02 20:35 S 17 16.09 Partly Cloudy SCT100 17 -5 22% 75.64 0.0
02 20:15 S 15 16.09 Partly Cloudy SCT100 17 -6 20% 75.62 0.0
02 19:55 SW 13 16.09 Mostly Cloudy BKN100 18 -6 19% 75.62 0.0
02 19:35 SW 15 16.09 Partly Cloudy SCT110 19 -8 15% 75.64 0.0
02 19:15 SW 19 16.09 Fair CLR 19 -8 15% 75.67 0.0
02 18:55 SW 26 G 31 16.09 Fair CLR 19 -9 14% 75.69 0.0
02 18:35 SW 26 G 33 16.09 Fair CLR 20 -8 14% 75.74 0.0
02 18:15 SW 26 16.09 Fair CLR 20 -8 14% 75.77 0.0
02 17:55 SW 24 16.09 Fair CLR 20 -8 14% 75.79 0.0
02 17:35 SW 28 G 37 16.09 Fair CLR 20 -8 14% 75.82 0.0
02 17:15 SW 30 G 44 16.09 Fair CLR 20 -9 13% 75.84 0.0
02 16:55 W 22 G 33 16.09 Fair CLR 19 -9 14% 75.84 0.0
02 16:35 SW 26 G 46 16.09 Fair CLR 21 -7 15% 75.87 0.0
02 16:15 SW 22 G 33 16.09 Partly Cloudy SCT090 19 -7 17% 75.92 0.0
02 15:55 SW 28 G 41 16.09 Partly Cloudy SCT090 SCT110 19 -6 18% 75.95 0.0
02 15:35 SW 37 G 44 16.09 Partly Cloudy and Breezy SCT110 19 -7 17% 75.95 0.0
02 15:15 SW 31 G 43 16.09 Fair CLR 19 -7 17% 75.97 0.0
02 14:55 W 20 G 37 16.09 Fair CLR 20 -6 17% 76 0.0
02 14:35 W 28 G 35 16.09 Fair CLR 19 -6 18% 76.02 0.0
02 14:15 W 30 G 35 16.09 Fair CLR 19 -6 18% 76.05 0.0
02 13:55 W 22 G 39 16.09 Fair CLR 19 -5 19% 76.07 0.0
02 13:35 W 28 G 48 16.09 Fair CLR 19 -6 18% 76.1 0.0
02 13:15 W 31 G 43 16.09 Fair CLR 19 -6 18% 76.1 0.0
02 12:55 W 28 G 41 16.09 Fair CLR 19 -6 18% 76.12 0.0
02 12:35 W 31 G 39 16.09 Fair CLR 19 -5 19% 76.15 0.0
02 12:15 W 31 G 41 16.09 Fair CLR 18 -4 22% 76.17 0.0
02 11:55 W 33 G 41 16.09 Fair and Breezy CLR 18 -4 22% 76.2 0.0
02 11:35 W 20 G 35 16.09 Fair CLR 17 -3 25% 76.23 0.0
02 11:15 W 24 G 35 16.09 Fair CLR 17 -3 25% 76.25 0.0
02 10:55 W 19 G 33 16.09 Fair CLR 16 -3 27% 76.25 0.0
02 10:35 SW 22 16.09 Fair CLR 15 -4 27% 76.28 0.0
02 10:15 SW 19 16.09 Fair CLR 14 -3 31% 76.3 0.0
02 09:55 SW 17 16.09 Fair CLR 14 -4 29% 76.33 0.0
02 09:35 SW 17 16.09 Fair CLR 12 -3 35% 76.33 0.0
02 09:15 SW 20 16.09 Fair CLR 12 -4 33% 76.35 0.0
02 08:55 W 19 16.09 Fair CLR 10 -3 40% 8 76.38 0.0
02 08:35 SW 19 16.09 Fair CLR 9 -3 43% 7 76.38 0.0
02 08:15 SW 11 16.09 Fair CLR 7 -2 53% 5 76.38 0.0
02 07:55 SW 13 16.09 Fair CLR 6 -3 53% 4 76.4 0.0
02 07:35 SW 7 16.09 Fair CLR 3 -2 70% 1 76.4 0.0
02 07:15 SW 9 16.09 Fair CLR 1 -3 75% -2 76.4 0.0
02 06:55 S 7 16.09 Fair CLR 1 -4 70% -1 76.43 0.0
02 06:35 S 7 16.09 Fair CLR 1 -4 70% -1 76.43 0.0
02 06:15 SW 9 16.09 Fair CLR 1 -4 70% -2 76.43 0.0
02 05:55 SW 9 16.09 Partly Cloudy SCT095 1 -4 70% -2 76.43 0.0
02 05:35 SW 11 16.09 Partly Cloudy SCT095 1 -4 70% -2 76.45 0.0
02 05:15 SW 9 16.09 Fair CLR 1 -4 70% -2 76.45 0.0
02 04:55 SW 7 16.09 Fair CLR 1 -3 75% -1 76.45 0.0
02 04:35 SW 7 16.09 Fair CLR 1 -4 70% -1 76.48 0.0
02 04:15 SW 9 16.09 Fair CLR 1 -4 70% -2 76.48 0.0
02 03:55 SW 11 16.09 Fair CLR 1 -4 70% -2 76.48 0.0
02 03:35 SW 11 16.09 Fair CLR 1 -4 70% -2 76.48 0.0
02 03:15 SW 11 16.09 Fair CLR 1 -4 70% -2 76.48 0.0
02 02:55 SW 7 16.09 Fair CLR 1 -3 75% -1 76.48 0.0
02 02:35 SW 11 16.09 Fair CLR 1 -3 75% -2 76.48 0.0
02 02:15 SW 9 16.09 Fair CLR 2 -3 70% -0 76.5 0.0
02 01:55 SW 6 16.09 Fair CLR 1 -3 75% 76.5 0.0
02 01:35 SW 9 16.09 Fair CLR 2 -3 70% -0 76.5 0.0
02 01:15 SW 9 16.09 Fair CLR 2 -3 70% -0 76.53 0.0
02 00:55 SW 7 16.09 Fair CLR 1 -3 75% -1 76.53 0.0
02 00:35 SW 6 16.09 Fair CLR 1 -3 75% 76.53 0.0
02 00:15 W 7 16.09 Fair CLR 3 -2 70% 1 76.53 0.0
01 23:55 Calm 16.09 Fair CLR 3 -2 70% 76.53 0.0
01 23:35 W 6 16.09 Fair CLR 2 -3 70% 76.53 0.0
01 23:15 W 6 16.09 Fair CLR 4 -3 61% 76.56 0.0
01 22:55 Calm 16.09 Fair CLR 4 -2 65% 76.56 0.0
01 22:35 Calm 16.09 Fair CLR 6 -4 49% 76.56 0.0
01 22:15 Calm 16.09 Fair CLR 7 -4 46% 76.53 0.0
01 21:55 Calm 16.09 Fair CLR 6 -4 49% 76.53 0.0
01 21:35 NW 6 16.09 Fair CLR 7 -4 46% 76.53 0.0
01 21:15 Calm 16.09 Fair CLR 6 -4 49% 76.53 0.0
01 20:55 NW 6 16.09 Fair CLR 8 -6 37% 76.5 0.0
01 20:35 NW 7 16.09 Fair CLR 8 -5 40% 7 76.5 0.0
01 20:15 NW 9 16.09 Fair CLR 8 -4 43% 7 76.5 0.0
01 19:55 N 9 16.09 Fair CLR 9 -5 37% 8 76.5 0.0
01 19:35 N 9 16.09 Fair CLR 9 -5 37% 8 76.48 0.0
01 19:15 N 17 16.09 Fair CLR 11 -6 30% 76.48 0.0
01 18:55 N 11 16.09 Fair CLR 11 -8 26% 76.48 0.0
01 18:35 N 19 16.09 Fair CLR 11 -7 28% 76.48 0.0
01 18:15 NW 9 16.09 Fair CLR 11 -7 28% 76.48 0.0
01 17:55 N 15 16.09 Fair CLR 11 -7 28% 76.48 0.0
01 17:35 NW 15 16.09 Fair CLR 11 -7 28% 76.48 0.0
01 17:15 N 11 16.09 Partly Cloudy SCT060 11 -6 30% 76.5 0.0
01 16:55 N 19 16.09 Mostly Cloudy BKN060 11 -6 30% 76.48 0.0
01 16:35 N 13 G 43 16.09 Partly Cloudy SCT060 11 -6 30% 76.5 0.0
01 16:15 N 7 G 15 16.09 Partly Cloudy SCT060 10 -6 32% 9 76.5 0.0
01 15:55 N 11 G 20 16.09 Partly Cloudy SCT060 10 -5 35% 9 76.53 0.0
01 15:35 NW 17 16.09 Partly Cloudy SCT060 11 -4 35% 76.53 0.0
01 15:15 N 20 16.09 Partly Cloudy SCT060 10 -5 35% 8 76.53 0.0
01 14:55 N 13 G 30 16.09 Partly Cloudy SCT050 9 -5 37% 7 76.56 0.0
01 14:35 N 17 16.09 Partly Cloudy SCT050 10 -5 35% 8 76.56 0.0
01 14:15 N 17 G 26 16.09 Partly Cloudy SCT050 10 -4 37% 8 76.56 0.0
01 13:55 N 15 16.09 Partly Cloudy SCT050 9 -4 40% 7 76.56 0.0
01 13:35 N 9 G 26 16.09 Mostly Cloudy BKN050 9 -4 40% 8 76.56 0.0
01 13:15 N 6 G 17 16.09 Mostly Cloudy BKN050 8 -5 40% 76.56 0.0
01 12:55 N 6 16.09 Mostly Cloudy BKN050 8 -6 37% 76.56 0.0
01 12:35 N 11 G 30 16.09 Partly Cloudy SCT050 8 -5 40% 6 76.58 0.0
01 12:15 NW 6 16.09 Partly Cloudy SCT050 8 -5 40% 76.58 0.0
01 11:55 N 9 G 15 16.09 Partly Cloudy SCT048 7 -5 43% 5 76.58 0.0
01 11:35 N 13 G 26 16.09 Partly Cloudy SCT048 8 -4 43% 6 76.58 0.0
01 11:15 NE 11 16.09 Fair CLR 7 -4 46% 5 76.58 0.0
01 10:55 N 19 16.09 Fair CLR 7 -4 46% 4 76.58 0.0
01 10:35 N 20 G 28 16.09 Fair CLR 7 -3 49% 4 76.58 0.0
01 10:15 N 20 16.09 Fair CLR 6 -2 57% 3 76.58 0.0
01 09:55 N 17 16.09 Fair CLR 6 -1 61% 3 76.58 0.0
01 09:35 N 19 16.09 Fair CLR 4 -2 65% 0 76.58 0.0
01 09:15 N 20 16.09 Fair CLR 4 -1 70% 0 76.58 0.0
01 08:55 NW 20 16.09 Fair CLR 3 -1 75% -1 76.56 0.0
01 08:35 N 17 16.09 Fair CLR 2 -2 75% -2 76.56 0.0
01 08:15 NW 15 16.09 Fair CLR 2 -2 75% -2 76.56 0.0
01 07:55 NW 13 16.09 Fair CLR 1 -2 81% -2 76.56 0.0
01 07:35 NW 13 16.09 Fair CLR 0 -3 80% -4 76.53 0.0
01 07:15 NW 13 16.09 Fair CLR -1 -3 86% -5 76.53 0.0
01 06:55 NW 15 16.09 Fair CLR -1 -3 86% -5 76.5 0.0
01 06:35 NW 15 16.09 Fair CLR -1 -3 86% -5 76.48 0.0
01 06:15 NW 15 16.09 Fair CLR -1 -3 86% -5 76.48 0.0
01 05:55 NW 15 16.09 Fair CLR -1 -3 86% -5 76.48 0.0
01 05:35 NW 15 16.09 Fair CLR -1 -3 86% -5 76.45 0.0
01 05:15 NW 13 16.09 Fair CLR 0 -3 80% -4 76.45 0.0
01 04:55 NW 17 16.09 Fair CLR 0 -2 87% -4 76.45 0.0
01 04:35 NW 15 16.09 Fair CLR 0 -3 80% -4 76.45 0.0
01 04:15 NW 13 16.09 Fair CLR 0 -2 87% -4 76.45 0.0
01 03:55 NW 11 16.09 Fair CLR 1 -2 81% -2 76.45 0.0
01 03:35 NW 11 16.09 Fair CLR 1 -3 75% -2 76.43 0.0
01 03:15 N 17 16.09 Fair CLR 2 -3 70% -2 76.43 0.0
01 02:55 N 15 16.09 Fair CLR 1 -3 75% -3 76.43 0.0
01 02:35 N 15 16.09 Fair CLR 1 -3 75% -3 76.45 0.0
01 02:15 N 15 16.09 Partly Cloudy SCT065 2 -3 70% -2 76.45 0.0
01 01:55 N 13 16.09 Mostly Cloudy BKN065 3 -3 65% 0 76.45 0.0
01 01:35 N 19 16.09 Mostly Cloudy BKN065 3 -2 70% -1 76.45 0.0
01 01:15 N 20 16.09 Mostly Cloudy BKN075 3 -2 70% -1 76.45 0.0
01 00:55 N 24 16.09 Mostly Cloudy BKN075 4 -2 65% -0 76.43 0.0
01 00:35 N 22 16.09 Mostly Cloudy BKN075 4 -1 70% -0 76.43 0.0
01 00:15 N 19 16.09 Mostly Cloudy BKN075 4 1 81% 0 76.43 0.0
30 23:55 N 22 16.09 Partly Cloudy SCT075 5 1 76% 1 76.4 0.0
30 23:35 N 19 16.09 Partly Cloudy SCT060 SCT075 5 2 81% 2 76.38 0.0
30 23:15 NW 13 16.09 Mostly Cloudy SCT060 BKN075 5 3 87% 2 76.38 0.0
30 22:55 NW 7 16.09 Mostly Cloudy BKN075 BKN090 5 3 87% 4 76.38 0.0
30 22:35 NW 7 16.09 Mostly Cloudy BKN075 BKN090 5 3 87% 4 76.38 0.0
30 22:15 NW 7 16.09 Mostly Cloudy BKN075 BKN090 5 3 87% 4 76.38 0.0
30 21:55 W 9 16.09 Mostly Cloudy SCT075 BKN090 5 3 87% 3 76.38 0.0
30 21:35 W 9 16.09 Overcast BKN075 OVC090 5 3 87% 3 76.35 0.0
30 21:15 Calm 16.09 Overcast OVC075 6 3 81% 76.35 0.0
30 20:55 Calm 16.09 Overcast OVC065 6 3 81% 76.33 0.0
30 20:35 N 6 16.09 Overcast BKN065 OVC075 6 3 81% 76.33 0.0
30 20:15 Calm 16.09 Mostly Cloudy SCT022 SCT065 BKN080 6 2 76% 76.3 0.0
30 19:55 NE 13 11.27 Light Rain BKN022 BKN027 6 2 76% 4 76.3 0.0
30 19:35 N 28 G 41 4.83 Rain SCT022 BKN030 OVC060 6 2 76% 2 76.35 0.0
30 19:15 NE 26 16.09 Mostly Cloudy BKN042 BKN060 7 3 76% 3 76.28 0.0
30 18:55 W 13 16.09 Mostly Cloudy BKN046 BKN055 10 2 58% 8 76.25 0.0
30 18:35 NW 9 16.09 Partly Cloudy SCT055 9 1 58% 8 76.25 0.0
30 18:15 W 9 16.09 Fair CLR 9 2 62% 8 76.28 0.0
30 17:55 W 6 16.09 Partly Cloudy SCT031 8 2 66% 76.3 0.0
30 17:35 N 11 16.09 Mostly Cloudy SCT032 BKN044 BKN050 8 2 66% 6 76.33 0.0
30 17:15 NW 17 16.09 Light Rain SCT028 SCT036 BKN060 7 3 76% 4 76.35 0.0
30 16:55 W 39 G 52 16.09 Mostly Cloudy and Breezy BKN060 10 -2 43% 6 76.3 0.0
30 16:35 W 22 16.09 Partly Cloudy SCT060 SCT075 12 -3 35% 76.28 0.0
30 16:15 W 22 G 31 16.09 Partly Cloudy SCT075 12 -3 35% 76.3 0.0
30 15:55 W 26 G 37 16.09 Partly Cloudy SCT049 11 -2 41% 76.33 0.0
30 15:35 W 24 G 35 16.09 Partly Cloudy SCT049 11 -2 41% 76.35 0.0
Date Time (cdt) Wind (kph) Vis. (km) Weather Sky Cond. Air Dwpt Max. Min. Relative Humidity Wind Chill (°C) Heat Index (°C) altimeter (cm) sea level (mb) 1 hr 3 hr 6 hr
6 hour
Temperature (ºC) Pressure Precipitation (cm)